Time,TemperatureF,DewpointF,PressureIn,WindDirection,WindDirectionDegrees,WindSpeedMPH,WindSpeedGustMPH,Humidity,HourlyPrecipIn,Conditions,Clouds,dailyrainin,SolarRadiationWatts/m^2,SoftwareType,DateUTC
2013-08-29 00:01:00,71.3,70.4,29.85,West,262,0.0,0.0,97,0.00,,,0.08,0,LWC V2.00 B2112,2013-08-29 04:01:00,
2013-08-29 00:02:00,71.3,70.4,29.85,West,262,0.0,0.0,97,0.00,,,0.08,0,LWC V2.00 B2112,2013-08-29 04:02:00,
2013-08-29 00:07:00,71.3,70.4,29.85,West,262,0.0,0.0,97,0.00,,,0.00,0,LWC V2.00 B2112,2013-08-29 04:07:00,
2013-08-29 00:12:00,71.2,70.3,29.85,West,262,0.0,0.0,97,0.00,,,0.00,0,LWC V2.00 B2112,2013-08-29 04:12:00,
2013-08-29 00:17:00,71.2,70.3,29.86,West,262,0.0,0.0,97,0.00,,,0.00,0,LWC V2.00 B2112,2013-08-29 04:17:00,
2013-08-29 00:22:00,71.1,70.2,29.86,West,262,0.0,0.0,97,0.00,,,0.00,0,LWC V2.00 B2112,2013-08-29 04:22:00,
2013-08-29 00:27:00,71.1,70.2,29.86,West,262,0.0,0.0,97,0.00,,,0.00,0,LWC V2.00 B2112,2013-08-29 04:27:00,
2013-08-29 00:32:00,71.1,70.2,29.86,West,262,0.0,0.0,97,0.00,,,0.00,0,LWC V2.00 B2112,2013-08-29 04:32:00,
2013-08-29 00:37:00,71.1,70.5,29.86,West,262,0.0,0.0,98,0.00,,,0.00,0,LWC V2.00 B2112,2013-08-29 04:37:00,
2013-08-29 00:42:00,71.1,70.5,29.86,West,262,0.0,0.0,98,0.00,,,0.00,0,LWC V2.00 B2112,2013-08-29 04:42:00,
2013-08-29 00:47:00,71.2,70.6,29.86,West,262,0.0,0.0,98,0.00,,,0.00,0,LWC V2.00 B2112,2013-08-29 04:47:00,
2013-08-29 00:52:00,71.2,70.6,29.86,West,262,0.0,0.0,98,0.00,,,0.00,0,LWC V2.00 B2112,2013-08-29 04:52:00,
2013-08-29 00:57:00,71.2,70.6,29.86,West,262,0.0,0.0,98,0.00,,,0.00,0,LWC V2.00 B2112,2013-08-29 04:57:00,
2013-08-29 01:02:00,71.3,70.7,29.86,West,262,0.0,0.0,98,0.00,,,0.00,0,LWC V2.00 B2112,2013-08-29 05:02:00,
2013-08-29 01:07:00,71.3,70.7,29.86,West,262,0.0,0.0,98,0.00,,,0.00,0,LWC V2.00 B2112,2013-08-29 05:07:00,
2013-08-29 01:12:00,71.3,70.7,29.86,West,262,0.0,0.0,98,0.00,,,0.00,0,LWC V2.00 B2112,2013-08-29 05:12:00,
2013-08-29 01:17:00,71.3,70.7,29.86,West,262,0.0,0.0,98,0.00,,,0.00,0,LWC V2.00 B2112,2013-08-29 05:17:00,
2013-08-29 01:22:00,71.3,70.7,29.86,West,262,0.0,0.0,98,0.00,,,0.00,0,LWC V2.00 B2112,2013-08-29 05:22:00,
2013-08-29 01:27:00,71.4,70.8,29.86,West,262,0.0,0.0,98,0.00,,,0.00,0,LWC V2.00 B2112,2013-08-29 05:27:00,
2013-08-29 01:32:00,71.5,70.9,29.86,West,262,0.0,0.0,98,0.00,,,0.00,0,LWC V2.00 B2112,2013-08-29 05:32:00,
2013-08-29 01:37:00,71.6,71.0,29.86,West,262,0.0,0.0,98,0.00,,,0.00,0,LWC V2.00 B2112,2013-08-29 05:37:00,
2013-08-29 01:42:00,71.6,71.0,29.86,West,262,0.0,0.0,98,0.00,,,0.00,0,LWC V2.00 B2112,2013-08-29 05:42:00,
2013-08-29 01:47:00,71.6,71.0,29.86,West,262,0.0,0.0,98,0.00,,,0.00,0,LWC V2.00 B2112,2013-08-29 05:47:00,
2013-08-29 01:52:00,71.5,70.9,29.86,West,262,0.0,0.0,98,0.00,,,0.00,0,LWC V2.00 B2112,2013-08-29 05:52:00,
2013-08-29 01:57:00,71.5,70.9,29.86,West,262,0.0,0.0,98,0.00,,,0.00,0,LWC V2.00 B2112,2013-08-29 05:57:00,
2013-08-29 02:02:00,71.3,70.7,29.86,West,262,0.0,0.0,98,0.00,,,0.00,0,LWC V2.00 B2112,2013-08-29 06:02:00,
2013-08-29 02:07:00,71.2,70.6,29.86,West,262,0.0,0.0,98,0.00,,,0.00,0,LWC V2.00 B2112,2013-08-29 06:07:00,
2013-08-29 02:12:00,71.2,70.6,29.86,West,262,0.0,0.0,98,0.00,,,0.00,0,LWC V2.00 B2112,2013-08-29 06:12:00,
2013-08-29 02:17:00,71.1,70.5,29.86,West,262,0.0,0.0,98,0.00,,,0.00,0,LWC V2.00 B2112,2013-08-29 06:17:00,
2013-08-29 02:22:00,71.0,70.1,29.86,West,262,0.0,0.0,97,0.00,,,0.00,0,LWC V2.00 B2112,2013-08-29 06:22:00,
2013-08-29 02:27:00,70.9,70.0,29.86,West,262,0.0,0.0,97,0.00,,,0.00,0,LWC V2.00 B2112,2013-08-29 06:27:00,
2013-08-29 02:32:00,70.8,69.9,29.86,West,262,0.0,0.0,97,0.00,,,0.00,0,LWC V2.00 B2112,2013-08-29 06:32:00,
2013-08-29 02:37:00,70.7,69.8,29.86,West,262,0.0,0.0,97,0.00,,,0.00,0,LWC V2.00 B2112,2013-08-29 06:37:00,
2013-08-29 02:42:00,70.6,69.7,29.86,West,262,0.0,0.0,97,0.00,,,0.00,0,LWC V2.00 B2112,2013-08-29 06:42:00,
2013-08-29 02:47:00,70.5,69.6,29.86,West,262,0.0,0.0,97,0.00,,,0.00,0,LWC V2.00 B2112,2013-08-29 06:47:00,
2013-08-29 02:51:00,70.4,69.5,29.87,West,262,0.0,0.0,97,0.00,,,0.00,0,LWC V2.00 B2112,2013-08-29 06:51:00,
2013-08-29 02:57:00,70.3,69.4,29.87,West,262,0.0,0.0,97,0.00,,,0.00,0,LWC V2.00 B2112,2013-08-29 06:57:00,
2013-08-29 03:01:00,70.1,69.2,29.87,West,262,0.0,0.0,97,0.00,,,0.00,0,LWC V2.00 B2112,2013-08-29 07:01:00,
2013-08-29 03:06:00,70.0,69.1,29.87,West,262,0.0,0.0,97,0.00,,,0.00,0,LWC V2.00 B2112,2013-08-29 07:06:00,
2013-08-29 03:11:00,69.9,69.0,29.87,West,262,0.0,0.0,97,0.00,,,0.00,0,LWC V2.00 B2112,2013-08-29 07:11:00,
2013-08-29 03:16:00,69.8,68.9,29.87,West,262,0.0,0.0,97,0.00,,,0.00,0,LWC V2.00 B2112,2013-08-29 07:16:00,
2013-08-29 03:21:00,69.7,68.8,29.87,West,262,0.0,0.0,97,0.00,,,0.00,0,LWC V2.00 B2112,2013-08-29 07:21:00,
2013-08-29 03:26:00,69.7,68.8,29.88,West,262,0.0,0.0,97,0.00,,,0.00,0,LWC V2.00 B2112,2013-08-29 07:26:00,
2013-08-29 03:31:00,69.7,68.8,29.88,West,262,0.0,0.0,97,0.00,,,0.00,0,LWC V2.00 B2112,2013-08-29 07:31:00,
2013-08-29 03:36:00,69.6,68.7,29.88,West,262,0.0,0.0,97,0.00,,,0.00,0,LWC V2.00 B2112,2013-08-29 07:36:00,
2013-08-29 03:41:00,69.6,68.7,29.88,West,262,0.0,0.0,97,0.00,,,0.00,0,LWC V2.00 B2112,2013-08-29 07:41:00,
2013-08-29 03:46:00,69.6,68.7,29.88,West,262,0.0,0.0,97,0.00,,,0.00,0,LWC V2.00 B2112,2013-08-29 07:46:00,
2013-08-29 03:52:00,69.5,68.6,29.88,West,262,0.0,0.0,97,0.00,,,0.00,0,LWC V2.00 B2112,2013-08-29 07:52:00,
2013-08-29 03:57:00,69.5,68.6,29.88,West,262,0.0,0.0,97,0.00,,,0.00,0,LWC V2.00 B2112,2013-08-29 07:57:00,
2013-08-29 04:02:00,69.4,68.5,29.88,West,262,0.0,0.0,97,0.00,,,0.00,0,LWC V2.00 B2112,2013-08-29 08:02:00,
2013-08-29 04:07:00,69.4,68.8,29.88,West,262,0.0,0.0,98,0.00,,,0.00,0,LWC V2.00 B2112,2013-08-29 08:07:00,
2013-08-29 04:12:00,69.4,68.8,29.88,West,262,0.0,0.0,98,0.00,,,0.00,0,LWC V2.00 B2112,2013-08-29 08:12:00,
2013-08-29 04:17:00,69.4,68.8,29.88,West,262,0.0,0.0,98,0.00,,,0.00,0,LWC V2.00 B2112,2013-08-29 08:17:00,
2013-08-29 04:22:00,69.3,68.7,29.88,West,262,0.0,0.0,98,0.00,,,0.00,0,LWC V2.00 B2112,2013-08-29 08:22:00,
2013-08-29 04:27:00,69.3,68.7,29.88,West,262,0.0,0.0,98,0.00,,,0.00,0,LWC V2.00 B2112,2013-08-29 08:27:00,
2013-08-29 04:31:00,69.2,68.6,29.88,West,262,0.0,0.0,98,0.00,,,0.00,0,LWC V2.00 B2112,2013-08-29 08:31:00,
2013-08-29 04:36:00,69.2,68.6,29.88,West,262,0.0,0.0,98,0.00,,,0.00,0,LWC V2.00 B2112,2013-08-29 08:36:00,
2013-08-29 04:41:00,69.2,68.6,29.88,West,262,0.0,0.0,98,0.00,,,0.00,0,LWC V2.00 B2112,2013-08-29 08:41:00,
2013-08-29 04:46:00,69.1,68.5,29.88,West,262,0.0,0.0,98,0.00,,,0.00,0,LWC V2.00 B2112,2013-08-29 08:46:00,
2013-08-29 04:51:00,69.1,68.5,29.88,West,262,0.0,0.0,98,0.00,,,0.00,0,LWC V2.00 B2112,2013-08-29 08:51:00,
2013-08-29 04:56:00,69.1,68.5,29.88,West,262,0.0,0.0,98,0.00,,,0.00,0,LWC V2.00 B2112,2013-08-29 08:56:00,
2013-08-29 05:01:00,69.1,68.5,29.88,West,262,0.0,0.0,98,0.00,,,0.00,0,LWC V2.00 B2112,2013-08-29 09:01:00,
2013-08-29 05:07:00,69.1,68.5,29.89,West,262,0.0,0.0,98,0.00,,,0.00,0,LWC V2.00 B2112,2013-08-29 09:07:00,
2013-08-29 05:11:00,69.1,68.5,29.89,West,262,0.0,0.0,98,0.00,,,0.00,0,LWC V2.00 B2112,2013-08-29 09:11:00,
2013-08-29 05:16:00,69.1,68.5,29.89,West,262,0.0,0.0,98,0.00,,,0.00,0,LWC V2.00 B2112,2013-08-29 09:16:00,
2013-08-29 05:22:00,69.2,68.6,29.89,West,262,0.0,0.0,98,0.00,,,0.00,0,LWC V2.00 B2112,2013-08-29 09:22:00,
2013-08-29 05:27:00,69.2,68.6,29.89,West,262,0.0,0.0,98,0.00,,,0.00,0,LWC V2.00 B2112,2013-08-29 09:27:00,
2013-08-29 05:32:00,69.4,68.8,29.89,West,262,0.0,0.0,98,0.00,,,0.00,0,LWC V2.00 B2112,2013-08-29 09:32:00,
2013-08-29 05:37:00,69.4,68.8,29.89,West,262,0.0,0.0,98,0.00,,,0.00,0,LWC V2.00 B2112,2013-08-29 09:37:00,
2013-08-29 05:42:00,69.5,68.9,29.90,West,262,0.0,0.0,98,0.00,,,0.00,0,LWC V2.00 B2112,2013-08-29 09:42:00,
2013-08-29 05:47:00,69.5,68.9,29.90,West,262,0.0,0.0,98,0.00,,,0.00,0,LWC V2.00 B2112,2013-08-29 09:47:00,
2013-08-29 05:52:00,69.6,69.0,29.90,West,262,0.0,0.0,98,0.00,,,0.00,0,LWC V2.00 B2112,2013-08-29 09:52:00,
2013-08-29 05:57:00,69.7,69.1,29.91,West,262,0.0,0.0,98,0.00,,,0.00,0,LWC V2.00 B2112,2013-08-29 09:57:00,
2013-08-29 06:02:00,69.7,69.1,29.91,West,262,0.0,0.0,98,0.00,,,0.00,0,LWC V2.00 B2112,2013-08-29 10:02:00,
2013-08-29 06:07:00,69.8,69.2,29.91,West,262,0.0,0.0,98,0.00,,,0.00,0,LWC V2.00 B2112,2013-08-29 10:07:00,
2013-08-29 06:12:00,69.8,69.2,29.91,West,262,0.0,0.0,98,0.00,,,0.00,0,LWC V2.00 B2112,2013-08-29 10:12:00,
2013-08-29 06:17:00,69.9,69.3,29.91,West,262,0.0,0.0,98,0.00,,,0.00,0,LWC V2.00 B2112,2013-08-29 10:17:00,
2013-08-29 06:21:00,69.9,69.3,29.91,West,262,0.0,0.0,98,0.00,,,0.00,0,LWC V2.00 B2112,2013-08-29 10:21:00,
2013-08-29 06:26:00,69.9,69.3,29.91,West,262,0.0,0.0,98,0.00,,,0.00,0,LWC V2.00 B2112,2013-08-29 10:26:00,
2013-08-29 06:31:00,69.9,69.3,29.91,West,262,0.0,0.0,98,0.00,,,0.00,0,LWC V2.00 B2112,2013-08-29 10:31:00,
2013-08-29 06:36:00,69.9,69.3,29.91,West,262,0.0,0.0,98,0.00,,,0.00,0,LWC V2.00 B2112,2013-08-29 10:36:00,
2013-08-29 06:41:00,69.9,69.3,29.92,West,262,0.0,0.0,98,0.00,,,0.00,0,LWC V2.00 B2112,2013-08-29 10:41:00,
2013-08-29 06:46:00,70.0,69.4,29.92,West,262,0.0,0.0,98,0.00,,,0.00,0,LWC V2.00 B2112,2013-08-29 10:46:00,
2013-08-29 06:51:00,70.0,69.4,29.92,West,262,0.0,0.0,98,0.00,,,0.00,0,LWC V2.00 B2112,2013-08-29 10:51:00,
2013-08-29 06:56:00,70.0,69.4,29.92,West,262,0.0,0.0,98,0.00,,,0.00,0,LWC V2.00 B2112,2013-08-29 10:56:00,
2013-08-29 07:01:00,70.1,69.5,29.92,West,262,0.0,0.0,98,0.00,,,0.00,0,LWC V2.00 B2112,2013-08-29 11:01:00,
2013-08-29 07:06:00,70.1,69.5,29.92,West,262,0.0,0.0,98,0.00,,,0.00,5,LWC V2.00 B2112,2013-08-29 11:06:00,
2013-08-29 07:11:00,70.2,69.6,29.92,West,262,0.0,0.0,98,0.00,,,0.00,7,LWC V2.00 B2112,2013-08-29 11:11:00,
2013-08-29 07:16:00,70.2,69.6,29.93,West,262,0.0,0.0,98,0.00,,,0.00,5,LWC V2.00 B2112,2013-08-29 11:16:00,
2013-08-29 07:21:00,70.3,69.7,29.93,West,262,0.0,0.0,98,0.00,,,0.00,7,LWC V2.00 B2112,2013-08-29 11:21:00,
2013-08-29 07:26:00,70.3,69.7,29.93,West,262,0.0,0.0,98,0.00,,,0.00,5,LWC V2.00 B2112,2013-08-29 11:26:00,
2013-08-29 07:31:00,70.4,69.8,29.93,West,262,0.0,0.0,98,0.00,,,0.00,5,LWC V2.00 B2112,2013-08-29 11:31:00,
2013-08-29 07:36:00,70.3,69.7,29.93,West,262,1.0,1.0,98,0.00,,,0.00,9,LWC V2.00 B2112,2013-08-29 11:36:00,
2013-08-29 07:41:00,70.3,69.7,29.93,West,262,0.0,2.0,98,0.00,,,0.00,12,LWC V2.00 B2112,2013-08-29 11:41:00,
2013-08-29 07:46:00,70.3,69.7,29.93,West,262,0.0,0.0,98,0.00,,,0.00,7,LWC V2.00 B2112,2013-08-29 11:46:00,
2013-08-29 07:51:00,70.2,69.6,29.94,WNW,290,0.0,1.0,98,0.00,,,0.00,11,LWC V2.00 B2112,2013-08-29 11:51:00,
2013-08-29 07:56:00,70.2,69.3,29.94,WNW,290,0.0,2.0,97,0.00,,,0.00,11,LWC V2.00 B2112,2013-08-29 11:56:00,
2013-08-29 08:01:00,70.1,69.2,29.95,WNW,290,0.0,0.0,97,0.00,,,0.00,9,LWC V2.00 B2112,2013-08-29 12:01:00,
2013-08-29 08:06:00,70.1,69.2,29.94,WNW,290,0.0,1.0,97,0.00,,,0.00,7,LWC V2.00 B2112,2013-08-29 12:06:00,
2013-08-29 08:11:00,70.2,69.3,29.95,WNW,290,0.0,0.0,97,0.00,,,0.00,7,LWC V2.00 B2112,2013-08-29 12:11:00,
2013-08-29 08:16:00,70.2,69.3,29.95,WNW,290,0.0,2.0,97,0.00,,,0.00,7,LWC V2.00 B2112,2013-08-29 12:16:00,
2013-08-29 08:21:00,70.2,69.3,29.95,WNW,290,0.0,1.0,97,0.00,,,0.00,9,LWC V2.00 B2112,2013-08-29 12:21:00,
2013-08-29 08:26:00,70.3,69.4,29.95,WNW,290,0.0,1.0,97,0.00,,,0.00,7,LWC V2.00 B2112,2013-08-29 12:26:00,
2013-08-29 08:31:00,70.3,69.1,29.95,WNW,290,0.0,0.0,96,0.00,,,0.00,7,LWC V2.00 B2112,2013-08-29 12:31:00,
2013-08-29 08:36:00,70.3,69.1,29.95,WNW,290,0.0,0.0,96,0.00,,,0.00,11,LWC V2.00 B2112,2013-08-29 12:36:00,
2013-08-29 08:41:00,70.3,69.1,29.95,WNW,290,0.0,0.0,96,0.00,,,0.00,7,LWC V2.00 B2112,2013-08-29 12:41:00,
2013-08-29 08:46:00,70.3,69.1,29.95,WNW,290,0.0,1.0,96,0.00,,,0.00,7,LWC V2.00 B2112,2013-08-29 12:46:00,
2013-08-29 08:51:00,70.3,69.1,29.95,WNW,292,0.0,1.0,96,0.00,,,0.00,11,LWC V2.00 B2112,2013-08-29 12:51:00,
2013-08-29 08:56:00,70.3,69.1,29.95,WNW,292,0.0,1.0,96,0.00,,,0.00,14,LWC V2.00 B2112,2013-08-29 12:56:00,
2013-08-29 09:01:00,70.3,69.1,29.96,WNW,292,0.0,1.0,96,0.00,,,0.00,11,LWC V2.00 B2112,2013-08-29 13:01:00,
2013-08-29 09:06:00,70.3,69.1,29.96,NNW,337,0.0,0.0,96,0.00,,,0.00,12,LWC V2.00 B2112,2013-08-29 13:06:00,
2013-08-29 09:11:00,70.3,69.1,29.96,NNW,337,0.0,0.0,96,0.00,,,0.00,11,LWC V2.00 B2112,2013-08-29 13:11:00,
2013-08-29 09:16:00,70.3,69.1,29.96,NNW,337,0.0,1.0,96,0.00,,,0.00,14,LWC V2.00 B2112,2013-08-29 13:16:00,
2013-08-29 09:21:00,70.3,69.1,29.96,NNW,337,0.0,0.0,96,0.00,,,0.00,12,LWC V2.00 B2112,2013-08-29 13:21:00,
2013-08-29 09:26:00,70.4,69.2,29.97,NNW,337,0.0,1.0,96,0.00,,,0.00,18,LWC V2.00 B2112,2013-08-29 13:26:00,
2013-08-29 09:31:00,70.3,68.8,29.97,NNW,337,1.0,1.0,95,0.00,,,0.00,21,LWC V2.00 B2112,2013-08-29 13:31:00,
2013-08-29 09:36:00,70.3,69.1,29.97,NNW,337,0.0,0.0,96,0.00,,,0.00,19,LWC V2.00 B2112,2013-08-29 13:36:00,
2013-08-29 09:41:00,70.3,68.8,29.97,NNW,337,0.0,1.0,95,0.00,,,0.00,25,LWC V2.00 B2112,2013-08-29 13:41:00,
2013-08-29 09:46:00,70.3,68.8,29.97,NNW,337,0.0,1.0,95,0.00,,,0.00,32,LWC V2.00 B2112,2013-08-29 13:46:00,
2013-08-29 09:51:00,70.4,69.2,29.97,NNW,337,0.0,1.0,96,0.00,,,0.00,30,LWC V2.00 B2112,2013-08-29 13:51:00,
2013-08-29 09:56:00,70.5,69.0,29.97,NNW,337,0.0,0.0,95,0.00,,,0.00,47,LWC V2.00 B2112,2013-08-29 13:56:00,
2013-08-29 10:01:00,70.6,69.1,29.97,NNW,337,0.0,0.0,95,0.00,,,0.00,42,LWC V2.00 B2112,2013-08-29 14:01:00,
2013-08-29 10:06:00,70.8,69.0,29.97,NNW,337,0.0,2.0,94,0.00,,,0.00,26,LWC V2.00 B2112,2013-08-29 14:06:00,
2013-08-29 10:11:00,70.8,69.0,29.97,NNW,337,0.0,1.0,94,0.00,,,0.00,30,LWC V2.00 B2112,2013-08-29 14:11:00,
2013-08-29 10:16:00,71.0,69.2,29.97,NNW,337,0.0,1.0,94,0.00,,,0.00,33,LWC V2.00 B2112,2013-08-29 14:16:00,
2013-08-29 10:21:00,71.1,69.6,29.97,NNW,337,0.0,0.0,95,0.00,,,0.00,30,LWC V2.00 B2112,2013-08-29 14:21:00,
2013-08-29 10:26:00,71.1,69.0,29.97,NNW,337,0.0,2.0,93,0.00,,,0.00,26,LWC V2.00 B2112,2013-08-29 14:26:00,
2013-08-29 10:31:00,71.1,69.0,29.97,NNW,345,1.0,2.0,93,0.00,,,0.00,30,LWC V2.00 B2112,2013-08-29 14:31:00,
2013-08-29 10:36:00,71.1,69.0,29.97,NNW,346,0.0,1.0,93,0.00,,,0.00,23,LWC V2.00 B2112,2013-08-29 14:36:00,
2013-08-29 10:41:00,71.1,68.7,29.97,NNW,346,0.0,0.0,92,0.00,,,0.00,19,LWC V2.00 B2112,2013-08-29 14:41:00,
2013-08-29 10:46:00,71.2,69.1,29.98,NNW,346,0.0,0.0,93,0.00,,,0.00,16,LWC V2.00 B2112,2013-08-29 14:46:00,
2013-08-29 10:51:00,71.2,68.8,29.97,NNW,346,0.0,1.0,92,0.00,,,0.00,25,LWC V2.00 B2112,2013-08-29 14:51:00,
2013-08-29 10:56:00,71.2,69.1,29.98,NNW,346,0.0,0.0,93,0.00,,,0.00,19,LWC V2.00 B2112,2013-08-29 14:56:00,
2013-08-29 11:01:00,71.2,69.1,29.98,NNW,346,0.0,0.0,93,0.00,,,0.00,25,LWC V2.00 B2112,2013-08-29 15:01:00,
2013-08-29 11:06:00,71.3,68.8,29.98,NNW,346,0.0,1.0,92,0.00,,,0.00,40,LWC V2.00 B2112,2013-08-29 15:06:00,
2013-08-29 11:11:00,71.3,68.8,29.98,NNW,346,0.0,0.0,92,0.00,,,0.00,26,LWC V2.00 B2112,2013-08-29 15:11:00,
2013-08-29 11:16:00,71.4,68.9,29.98,NNW,346,0.0,0.0,92,0.00,,,0.00,39,LWC V2.00 B2112,2013-08-29 15:16:00,
2013-08-29 11:21:00,71.6,69.5,29.98,NNW,346,0.0,0.0,93,0.00,,,0.00,62,LWC V2.00 B2112,2013-08-29 15:21:00,
2013-08-29 11:26:00,71.7,69.2,29.98,NNW,346,0.0,1.0,92,0.00,,,0.00,56,LWC V2.00 B2112,2013-08-29 15:26:00,
2013-08-29 11:31:00,71.9,69.4,29.98,NNW,346,0.0,0.0,92,0.00,,,0.00,67,LWC V2.00 B2112,2013-08-29 15:31:00,
2013-08-29 11:36:00,72.1,69.6,29.98,NNW,346,0.0,1.0,92,0.00,,,0.00,54,LWC V2.00 B2112,2013-08-29 15:36:00,
2013-08-29 11:41:00,72.4,69.6,29.98,NNW,346,0.0,0.0,91,0.00,,,0.00,33,LWC V2.00 B2112,2013-08-29 15:41:00,
2013-08-29 11:46:00,72.5,69.4,29.98,NNW,346,0.0,1.0,90,0.00,,,0.00,18,LWC V2.00 B2112,2013-08-29 15:46:00,
2013-08-29 11:51:00,72.5,69.4,29.98,NNW,346,0.0,0.0,90,0.00,,,0.00,26,LWC V2.00 B2112,2013-08-29 15:51:00,
2013-08-29 11:56:00,72.6,69.8,29.98,NNW,346,0.0,0.0,91,0.00,,,0.00,65,LWC V2.00 B2112,2013-08-29 15:56:00,
2013-08-29 12:01:00,72.7,69.6,29.98,NNW,346,0.0,1.0,90,0.00,,,0.00,76,LWC V2.00 B2112,2013-08-29 16:01:00,
2013-08-29 12:06:00,72.8,69.7,29.98,NNW,346,0.0,0.0,90,0.00,,,0.00,74,LWC V2.00 B2112,2013-08-29 16:06:00,
2013-08-29 12:11:00,73.1,69.7,29.98,NNW,346,0.0,0.0,89,0.00,,,0.00,58,LWC V2.00 B2112,2013-08-29 16:11:00,
2013-08-29 12:16:00,73.2,69.4,29.98,NNW,346,0.0,0.0,88,0.00,,,0.00,56,LWC V2.00 B2112,2013-08-29 16:16:00,
2013-08-29 12:21:00,73.5,70.0,29.98,NNW,346,0.0,0.0,89,0.00,,,0.00,51,LWC V2.00 B2112,2013-08-29 16:21:00,
2013-08-29 12:26:00,73.7,69.9,29.98,NNW,346,0.0,1.0,88,0.00,,,0.00,39,LWC V2.00 B2112,2013-08-29 16:26:00,
2013-08-29 12:31:00,73.8,70.0,29.98,NNW,346,0.0,0.0,88,0.00,,,0.00,42,LWC V2.00 B2112,2013-08-29 16:31:00,
2013-08-29 12:36:00,73.9,69.8,29.97,North,0,0.0,1.0,87,0.00,,,0.00,53,LWC V2.00 B2112,2013-08-29 16:36:00,
2013-08-29 12:41:00,74.1,70.0,29.97,North,0,0.0,0.0,87,0.00,,,0.00,98,LWC V2.00 B2112,2013-08-29 16:41:00,
2013-08-29 12:46:00,74.4,70.3,29.97,North,0,0.0,1.0,87,0.00,,,0.00,70,LWC V2.00 B2112,2013-08-29 16:46:00,
2013-08-29 12:51:00,74.8,70.0,29.97,North,0,0.0,1.0,85,0.00,,,0.00,62,LWC V2.00 B2112,2013-08-29 16:51:00,
2013-08-29 12:56:00,75.0,70.2,29.97,North,0,0.0,0.0,85,0.00,,,0.00,74,LWC V2.00 B2112,2013-08-29 16:56:00,
2013-08-29 13:01:00,75.2,70.4,29.97,North,0,0.0,1.0,85,0.00,,,0.00,56,LWC V2.00 B2112,2013-08-29 17:01:00,
2013-08-29 13:06:00,75.3,70.1,29.97,North,0,0.0,1.0,84,0.00,,,0.00,26,LWC V2.00 B2112,2013-08-29 17:06:00,
2013-08-29 13:11:00,75.4,69.9,29.97,North,0,0.0,1.0,83,0.00,,,0.00,39,LWC V2.00 B2112,2013-08-29 17:11:00,
2013-08-29 13:16:00,75.4,69.5,29.98,North,0,0.0,2.0,82,0.00,,,0.00,47,LWC V2.00 B2112,2013-08-29 17:16:00,
2013-08-29 13:21:00,75.4,69.1,29.98,North,0,0.0,1.0,81,0.00,,,0.00,69,LWC V2.00 B2112,2013-08-29 17:21:00,
2013-08-29 13:26:00,75.5,69.2,29.98,North,9,0.0,0.0,81,0.00,,,0.00,83,LWC V2.00 B2112,2013-08-29 17:26:00,
2013-08-29 13:31:00,75.8,69.9,29.98,North,0,0.0,1.0,82,0.00,,,0.00,93,LWC V2.00 B2112,2013-08-29 17:31:00,
2013-08-29 13:36:00,76.1,69.1,29.98,North,0,0.0,0.0,79,0.00,,,0.00,70,LWC V2.00 B2112,2013-08-29 17:36:00,
2013-08-29 13:41:00,76.3,68.9,29.98,North,355,0.0,0.0,78,0.00,,,0.00,63,LWC V2.00 B2112,2013-08-29 17:41:00,
2013-08-29 13:46:00,76.4,69.0,29.97,North,355,0.0,1.0,78,0.00,,,0.00,58,LWC V2.00 B2112,2013-08-29 17:46:00,
2013-08-29 13:51:00,76.4,69.0,29.97,North,355,0.0,1.0,78,0.00,,,0.00,49,LWC V2.00 B2112,2013-08-29 17:51:00,
2013-08-29 13:56:00,76.5,69.1,29.97,North,355,0.0,0.0,78,0.00,,,0.00,46,LWC V2.00 B2112,2013-08-29 17:56:00,
2013-08-29 14:01:00,76.5,69.1,29.97,North,355,0.0,1.0,78,0.00,,,0.00,62,LWC V2.00 B2112,2013-08-29 18:01:00,
2013-08-29 14:06:00,76.5,69.5,29.97,North,355,0.0,0.0,79,0.00,,,0.00,63,LWC V2.00 B2112,2013-08-29 18:06:00,
2013-08-29 14:11:00,76.6,69.2,29.97,North,355,2.0,2.0,78,0.00,,,0.00,100,LWC V2.00 B2112,2013-08-29 18:11:00,
2013-08-29 14:16:00,76.8,68.6,29.97,North,355,0.0,0.0,76,0.00,,,0.00,69,LWC V2.00 B2112,2013-08-29 18:16:00,
2013-08-29 14:21:00,77.0,69.2,29.97,North,355,0.0,1.0,77,0.00,,,0.00,56,LWC V2.00 B2112,2013-08-29 18:21:00,
2013-08-29 14:26:00,77.1,68.9,29.97,North,355,0.0,0.0,76,0.00,,,0.00,58,LWC V2.00 B2112,2013-08-29 18:26:00,
2013-08-29 14:31:00,77.1,69.3,29.97,North,355,0.0,0.0,77,0.00,,,0.00,69,LWC V2.00 B2112,2013-08-29 18:31:00,
2013-08-29 14:36:00,77.2,69.0,29.97,North,355,0.0,2.0,76,0.00,,,0.00,72,LWC V2.00 B2112,2013-08-29 18:36:00,
2013-08-29 14:41:00,77.3,69.1,29.96,North,355,0.0,0.0,76,0.00,,,0.00,69,LWC V2.00 B2112,2013-08-29 18:41:00,
2013-08-29 14:46:00,77.4,69.6,29.96,North,355,0.0,2.0,77,0.00,,,0.00,72,LWC V2.00 B2112,2013-08-29 18:46:00,
2013-08-29 14:51:00,77.6,69.8,29.96,North,355,1.0,1.0,77,0.00,,,0.00,76,LWC V2.00 B2112,2013-08-29 18:51:00,
2013-08-29 14:56:00,77.7,69.9,29.96,North,355,0.0,2.0,77,0.00,,,0.00,46,LWC V2.00 B2112,2013-08-29 18:56:00,
2013-08-29 15:01:00,77.8,69.2,29.96,North,355,0.0,2.0,75,0.00,,,0.00,58,LWC V2.00 B2112,2013-08-29 19:01:00,
2013-08-29 15:06:00,77.8,69.6,29.96,North,355,0.0,1.0,76,0.00,,,0.00,60,LWC V2.00 B2112,2013-08-29 19:06:00,
2013-08-29 15:11:00,77.8,69.2,29.96,North,355,1.0,1.0,75,0.00,,,0.00,53,LWC V2.00 B2112,2013-08-29 19:11:00,
2013-08-29 15:16:00,77.9,69.7,29.96,North,355,0.0,1.0,76,0.00,,,0.00,84,LWC V2.00 B2112,2013-08-29 19:16:00,
2013-08-29 15:21:00,78.2,69.2,29.96,North,5,2.0,3.0,74,0.00,,,0.00,67,LWC V2.00 B2112,2013-08-29 19:21:00,
2013-08-29 15:26:00,78.5,69.5,29.96,North,5,0.0,2.0,74,0.00,,,0.00,62,LWC V2.00 B2112,2013-08-29 19:26:00,
2013-08-29 15:31:00,78.6,69.6,29.96,North,9,0.0,1.0,74,0.00,,,0.00,98,LWC V2.00 B2112,2013-08-29 19:31:00,
2013-08-29 15:36:00,78.7,70.5,29.96,North,5,3.0,3.0,76,0.00,,,0.00,54,LWC V2.00 B2112,2013-08-29 19:36:00,
2013-08-29 15:41:00,78.5,70.3,29.96,North,5,0.0,1.0,76,0.00,,,0.00,58,LWC V2.00 B2112,2013-08-29 19:41:00,
2013-08-29 15:46:00,78.3,70.1,29.96,North,351,0.0,1.0,76,0.00,,,0.00,44,LWC V2.00 B2112,2013-08-29 19:46:00,
2013-08-29 15:51:00,78.1,70.3,29.96,North,351,0.0,1.0,77,0.00,,,0.00,35,LWC V2.00 B2112,2013-08-29 19:51:00,
2013-08-29 15:56:00,77.9,70.1,29.96,North,0,0.0,2.0,77,0.00,,,0.00,25,LWC V2.00 B2112,2013-08-29 19:56:00,
2013-08-29 16:01:00,77.7,69.9,29.96,North,5,1.0,3.0,77,0.00,,,0.00,30,LWC V2.00 B2112,2013-08-29 20:01:00,
2013-08-29 16:06:00,77.6,69.8,29.96,North,5,0.0,1.0,77,0.00,,,0.00,14,LWC V2.00 B2112,2013-08-29 20:06:00,
2013-08-29 16:11:00,77.4,69.6,29.96,North,5,0.0,0.0,77,0.00,,,0.00,30,LWC V2.00 B2112,2013-08-29 20:11:00,
2013-08-29 16:16:00,77.4,70.7,29.96,North,5,0.0,0.0,80,0.00,,,0.00,49,LWC V2.00 B2112,2013-08-29 20:16:00,
2013-08-29 16:21:00,77.3,70.3,29.96,North,5,0.0,0.0,79,0.00,,,0.00,70,LWC V2.00 B2112,2013-08-29 20:21:00,
2013-08-29 16:26:00,77.4,70.0,29.96,North,5,0.0,0.0,78,0.00,,,0.00,65,LWC V2.00 B2112,2013-08-29 20:26:00,
2013-08-29 16:31:00,77.6,69.8,29.96,North,5,0.0,1.0,77,0.00,,,0.00,51,LWC V2.00 B2112,2013-08-29 20:31:00,
2013-08-29 16:36:00,77.7,69.5,29.96,North,5,0.0,1.0,76,0.00,,,0.00,21,LWC V2.00 B2112,2013-08-29 20:36:00,
2013-08-29 16:41:00,77.7,69.5,29.96,North,5,1.0,1.0,76,0.00,,,0.00,12,LWC V2.00 B2112,2013-08-29 20:41:00,
2013-08-29 16:46:00,77.6,69.4,29.96,North,5,0.0,1.0,76,0.00,,,0.00,12,LWC V2.00 B2112,2013-08-29 20:46:00,
2013-08-29 16:51:00,77.4,69.6,29.95,North,5,0.0,0.0,77,0.00,,,0.00,12,LWC V2.00 B2112,2013-08-29 20:51:00,
2013-08-29 16:56:00,77.2,69.8,29.95,North,5,0.0,0.0,78,0.00,,,0.00,21,LWC V2.00 B2112,2013-08-29 20:56:00,
2013-08-29 17:01:00,77.0,70.0,29.95,North,5,0.0,0.0,79,0.00,,,0.00,21,LWC V2.00 B2112,2013-08-29 21:01:00,
2013-08-29 17:06:00,76.9,70.2,29.95,North,5,0.0,0.0,80,0.00,,,0.00,25,LWC V2.00 B2112,2013-08-29 21:06:00,
2013-08-29 17:11:00,76.8,69.8,29.96,North,5,0.0,1.0,79,0.00,,,0.00,28,LWC V2.00 B2112,2013-08-29 21:11:00,
2013-08-29 17:16:00,76.8,69.8,29.96,North,5,0.0,1.0,79,0.00,,,0.00,32,LWC V2.00 B2112,2013-08-29 21:16:00,
2013-08-29 17:21:00,76.8,69.8,29.95,North,5,0.0,0.0,79,0.00,,,0.00,28,LWC V2.00 B2112,2013-08-29 21:21:00,
2013-08-29 17:26:00,76.9,69.5,29.95,North,5,0.0,0.0,78,0.00,,,0.00,25,LWC V2.00 B2112,2013-08-29 21:26:00,
2013-08-29 17:31:00,76.9,69.5,29.96,North,5,0.0,0.0,78,0.00,,,0.00,25,LWC V2.00 B2112,2013-08-29 21:31:00,
2013-08-29 17:36:00,76.9,69.1,29.96,North,5,0.0,1.0,77,0.00,,,0.00,23,LWC V2.00 B2112,2013-08-29 21:36:00,
2013-08-29 17:41:00,76.9,69.9,29.96,North,5,0.0,0.0,79,0.00,,,0.00,26,LWC V2.00 B2112,2013-08-29 21:41:00,
2013-08-29 17:46:00,76.9,69.5,29.96,North,5,0.0,1.0,78,0.00,,,0.00,28,LWC V2.00 B2112,2013-08-29 21:46:00,
2013-08-29 17:51:00,76.9,69.1,29.96,North,5,0.0,2.0,77,0.00,,,0.00,21,LWC V2.00 B2112,2013-08-29 21:51:00,
2013-08-29 17:56:00,76.7,68.5,29.96,North,5,1.0,2.0,76,0.00,,,0.00,23,LWC V2.00 B2112,2013-08-29 21:56:00,
2013-08-29 18:01:00,76.6,68.5,29.96,North,5,0.0,2.0,76,0.00,,,0.00,11,LWC V2.00 B2112,2013-08-29 22:01:00,
2013-08-29 18:06:00,76.5,68.4,29.96,North,5,0.0,1.0,76,0.00,,,0.00,12,LWC V2.00 B2112,2013-08-29 22:06:00,
2013-08-29 18:11:00,76.3,68.5,29.96,North,5,0.0,0.0,77,0.00,,,0.00,19,LWC V2.00 B2112,2013-08-29 22:11:00,
2013-08-29 18:16:00,76.2,68.4,29.97,North,5,0.0,0.0,77,0.00,,,0.00,19,LWC V2.00 B2112,2013-08-29 22:16:00,
2013-08-29 18:21:00,76.1,68.0,29.96,North,5,0.0,0.0,76,0.00,,,0.00,14,LWC V2.00 B2112,2013-08-29 22:21:00,
2013-08-29 18:26:00,76.0,68.3,29.96,North,5,0.0,0.0,77,0.00,,,0.00,12,LWC V2.00 B2112,2013-08-29 22:26:00,
2013-08-29 18:31:00,75.9,68.2,29.96,North,5,0.0,0.0,77,0.00,,,0.00,14,LWC V2.00 B2112,2013-08-29 22:31:00,
2013-08-29 18:36:00,75.8,67.7,29.97,North,5,0.0,0.0,76,0.00,,,0.00,11,LWC V2.00 B2112,2013-08-29 22:36:00,
2013-08-29 18:41:00,75.7,68.0,29.97,North,5,0.0,0.0,77,0.00,,,0.00,11,LWC V2.00 B2112,2013-08-29 22:41:00,
2013-08-29 18:46:00,75.6,67.5,29.97,North,5,0.0,0.0,76,0.00,,,0.00,11,LWC V2.00 B2112,2013-08-29 22:46:00,
2013-08-29 18:51:00,75.4,67.3,29.97,North,5,0.0,1.0,76,0.00,,,0.00,7,LWC V2.00 B2112,2013-08-29 22:51:00,
2013-08-29 18:56:00,75.3,67.2,29.97,North,5,0.0,1.0,76,0.00,,,0.00,7,LWC V2.00 B2112,2013-08-29 22:56:00,
2013-08-29 19:01:00,75.2,67.1,29.97,North,5,0.0,1.0,76,0.00,,,0.00,7,LWC V2.00 B2112,2013-08-29 23:01:00,
2013-08-29 19:06:00,75.0,67.3,29.97,North,5,0.0,0.0,77,0.00,,,0.00,7,LWC V2.00 B2112,2013-08-29 23:06:00,
2013-08-29 19:11:00,74.9,67.2,29.97,North,5,0.0,2.0,77,0.00,,,0.00,5,LWC V2.00 B2112,2013-08-29 23:11:00,
2013-08-29 19:16:00,74.8,67.1,29.97,North,5,0.0,1.0,77,0.00,,,0.00,0,LWC V2.00 B2112,2013-08-29 23:16:00,
2013-08-29 19:21:00,74.7,67.4,29.98,North,5,0.0,0.0,78,0.00,,,0.00,0,LWC V2.00 B2112,2013-08-29 23:21:00,
2013-08-29 19:26:00,74.6,67.3,29.98,North,5,0.0,0.0,78,0.00,,,0.00,0,LWC V2.00 B2112,2013-08-29 23:26:00,
2013-08-29 19:31:00,74.4,67.4,29.98,North,5,0.0,1.0,79,0.00,,,0.00,0,LWC V2.00 B2112,2013-08-29 23:31:00,
2013-08-29 19:36:00,74.2,67.6,29.98,North,5,0.0,0.0,80,0.00,,,0.00,0,LWC V2.00 B2112,2013-08-29 23:36:00,
2013-08-29 19:41:00,74.0,68.1,29.98,North,5,0.0,0.0,82,0.00,,,0.00,0,LWC V2.00 B2112,2013-08-29 23:41:00,
2013-08-29 19:46:00,73.8,68.3,29.98,North,5,0.0,1.0,83,0.00,,,0.00,0,LWC V2.00 B2112,2013-08-29 23:46:00,
2013-08-29 19:51:00,73.5,68.0,29.98,North,5,0.0,0.0,83,0.00,,,0.00,0,LWC V2.00 B2112,2013-08-29 23:51:00,
2013-08-29 19:56:00,73.3,67.5,29.98,North,5,0.0,0.0,82,0.00,,,0.00,0,LWC V2.00 B2112,2013-08-29 23:56:00,
2013-08-29 20:01:00,73.1,67.6,29.98,North,5,0.0,0.0,83,0.00,,,0.00,0,LWC V2.00 B2112,2013-08-30 00:01:00,
2013-08-29 20:06:00,73.0,67.5,29.98,North,5,0.0,0.0,83,0.00,,,0.00,0,LWC V2.00 B2112,2013-08-30 00:06:00,
2013-08-29 20:11:00,72.8,67.3,29.98,North,5,1.0,1.0,83,0.00,,,0.00,0,LWC V2.00 B2112,2013-08-30 00:11:00,
2013-08-29 20:16:00,72.6,67.1,29.98,North,5,0.0,0.0,83,0.00,,,0.00,0,LWC V2.00 B2112,2013-08-30 00:16:00,
2013-08-29 20:21:00,72.5,67.0,29.98,North,5,0.0,0.0,83,0.00,,,0.00,0,LWC V2.00 B2112,2013-08-30 00:21:00,
2013-08-29 20:26:00,72.4,67.3,29.98,North,5,0.0,0.0,84,0.00,,,0.00,0,LWC V2.00 B2112,2013-08-30 00:26:00,
2013-08-29 20:31:00,72.2,66.7,29.98,North,5,0.0,0.0,83,0.00,,,0.00,0,LWC V2.00 B2112,2013-08-30 00:31:00,
2013-08-29 20:36:00,72.1,67.0,29.99,North,5,0.0,0.0,84,0.00,,,0.00,0,LWC V2.00 B2112,2013-08-30 00:36:00,
2013-08-29 20:41:00,72.1,67.0,29.98,North,5,0.0,0.0,84,0.00,,,0.00,0,LWC V2.00 B2112,2013-08-30 00:41:00,
2013-08-29 20:46:00,72.0,66.9,29.98,North,5,0.0,0.0,84,0.00,,,0.00,0,LWC V2.00 B2112,2013-08-30 00:46:00,
2013-08-29 20:51:00,71.9,66.8,29.99,North,5,0.0,0.0,84,0.00,,,0.00,0,LWC V2.00 B2112,2013-08-30 00:51:00,
2013-08-29 20:56:00,71.8,67.0,29.99,North,5,0.0,0.0,85,0.00,,,0.00,0,LWC V2.00 B2112,2013-08-30 00:56:00,
2013-08-29 21:01:00,71.7,66.9,29.99,North,5,0.0,0.0,85,0.00,,,0.00,0,LWC V2.00 B2112,2013-08-30 01:01:00,
2013-08-29 21:06:00,71.5,66.7,30.00,North,5,0.0,0.0,85,0.00,,,0.00,0,LWC V2.00 B2112,2013-08-30 01:06:00,
2013-08-29 21:11:00,71.4,66.6,30.00,North,5,0.0,0.0,85,0.00,,,0.00,0,LWC V2.00 B2112,2013-08-30 01:11:00,
2013-08-29 21:16:00,71.2,66.8,30.00,North,5,0.0,0.0,86,0.00,,,0.00,0,LWC V2.00 B2112,2013-08-30 01:16:00,
2013-08-29 21:21:00,71.1,67.0,30.00,North,5,0.0,0.0,87,0.00,,,0.00,0,LWC V2.00 B2112,2013-08-30 01:21:00,
2013-08-29 21:26:00,71.0,66.9,30.00,North,5,0.0,0.0,87,0.00,,,0.00,0,LWC V2.00 B2112,2013-08-30 01:26:00,
2013-08-29 21:31:00,70.9,66.8,30.00,North,5,0.0,0.0,87,0.00,,,0.00,0,LWC V2.00 B2112,2013-08-30 01:31:00,
2013-08-29 21:36:00,70.7,66.6,30.00,North,5,0.0,0.0,87,0.00,,,0.00,0,LWC V2.00 B2112,2013-08-30 01:36:00,
2013-08-29 21:41:00,70.5,66.8,29.99,North,5,0.0,0.0,88,0.00,,,0.00,0,LWC V2.00 B2112,2013-08-30 01:41:00,
2013-08-29 21:46:00,70.3,66.6,29.99,North,5,0.0,0.0,88,0.00,,,0.00,0,LWC V2.00 B2112,2013-08-30 01:46:00,
2013-08-29 21:51:00,70.1,66.7,30.00,North,5,0.0,0.0,89,0.00,,,0.00,0,LWC V2.00 B2112,2013-08-30 01:51:00,
2013-08-29 21:56:00,69.9,66.5,30.00,North,5,0.0,0.0,89,0.00,,,0.00,0,LWC V2.00 B2112,2013-08-30 01:56:00,
2013-08-29 22:01:00,69.7,66.3,29.99,North,5,0.0,0.0,89,0.00,,,0.00,0,LWC V2.00 B2112,2013-08-30 02:01:00,
2013-08-29 22:06:00,69.6,66.2,29.99,North,5,0.0,0.0,89,0.00,,,0.00,0,LWC V2.00 B2112,2013-08-30 02:06:00,
2013-08-29 22:11:00,69.4,66.3,29.99,North,5,0.0,0.0,90,0.00,,,0.00,0,LWC V2.00 B2112,2013-08-30 02:11:00,
2013-08-29 22:16:00,69.2,66.1,30.00,North,5,0.0,0.0,90,0.00,,,0.00,0,LWC V2.00 B2112,2013-08-30 02:16:00,
2013-08-29 22:21:00,69.0,65.9,30.00,North,5,0.0,0.0,90,0.00,,,0.00,0,LWC V2.00 B2112,2013-08-30 02:21:00,
2013-08-29 22:26:00,68.9,65.8,30.00,North,5,0.0,0.0,90,0.00,,,0.00,0,LWC V2.00 B2112,2013-08-30 02:26:00,
2013-08-29 22:31:00,68.8,65.7,30.00,North,5,0.0,0.0,90,0.00,,,0.00,0,LWC V2.00 B2112,2013-08-30 02:31:00,
2013-08-29 22:36:00,68.7,66.0,30.00,North,5,0.0,0.0,91,0.00,,,0.00,0,LWC V2.00 B2112,2013-08-30 02:36:00,
2013-08-29 22:41:00,68.7,66.0,30.01,North,5,0.0,0.0,91,0.00,,,0.00,0,LWC V2.00 B2112,2013-08-30 02:41:00,
2013-08-29 22:46:00,68.6,66.2,30.01,North,5,0.0,0.0,92,0.00,,,0.00,0,LWC V2.00 B2112,2013-08-30 02:46:00,
2013-08-29 22:51:00,68.6,66.2,30.00,North,5,0.0,0.0,92,0.00,,,0.00,0,LWC V2.00 B2112,2013-08-30 02:51:00,
2013-08-29 22:56:00,68.6,66.2,30.00,North,5,0.0,0.0,92,0.00,,,0.00,0,LWC V2.00 B2112,2013-08-30 02:56:00,
2013-08-29 23:01:00,68.6,66.2,30.00,North,5,0.0,0.0,92,0.00,,,0.00,0,LWC V2.00 B2112,2013-08-30 03:01:00,
2013-08-29 23:06:00,68.6,66.2,29.99,North,5,0.0,0.0,92,0.00,,,0.00,0,LWC V2.00 B2112,2013-08-30 03:06:00,
2013-08-29 23:11:00,68.6,66.2,29.99,North,5,0.0,0.0,92,0.00,,,0.00,0,LWC V2.00 B2112,2013-08-30 03:11:00,
2013-08-29 23:16:00,68.7,66.3,29.99,North,5,0.0,0.0,92,0.00,,,0.00,0,LWC V2.00 B2112,2013-08-30 03:16:00,
2013-08-29 23:21:00,68.8,66.4,29.99,North,5,0.0,0.0,92,0.00,,,0.00,0,LWC V2.00 B2112,2013-08-30 03:21:00,
2013-08-29 23:26:00,69.0,66.6,29.99,North,5,0.0,0.0,92,0.00,,,0.00,0,LWC V2.00 B2112,2013-08-30 03:26:00,
2013-08-29 23:31:00,69.2,66.5,29.99,North,5,0.0,0.0,91,0.00,,,0.00,0,LWC V2.00 B2112,2013-08-30 03:31:00,
2013-08-29 23:36:00,69.4,66.7,30.00,North,5,0.0,1.0,91,0.00,,,0.00,0,LWC V2.00 B2112,2013-08-30 03:36:00,
2013-08-29 23:41:00,69.7,66.9,30.00,North,5,0.0,0.0,91,0.00,,,0.00,0,LWC V2.00 B2112,2013-08-30 03:41:00,
2013-08-29 23:46:00,69.8,67.0,30.00,North,5,0.0,0.0,91,0.00,,,0.00,0,LWC V2.00 B2112,2013-08-30 03:46:00,
2013-08-29 23:51:00,69.9,66.8,30.00,North,5,0.0,0.0,90,0.00,,,0.00,0,LWC V2.00 B2112,2013-08-30 03:51:00,
2013-08-29 23:56:00,69.9,66.8,30.00,North,5,0.0,1.0,90,0.00,,,0.00,0,LWC V2.00 B2112,2013-08-30 03:56:00,